createdAt,value
2022-09-15T00:01:15.287Z,82.10
2022-09-15T00:03:43.189Z,81.30
2022-09-15T00:06:10.906Z,80.70
2022-09-15T00:08:39.143Z,79.70
2022-09-15T00:11:11.106Z,79.30
2022-09-15T00:13:39.810Z,80.20
2022-09-15T00:16:09.129Z,80.80
2022-09-15T00:18:37.920Z,80.40
2022-09-15T00:21:08.044Z,80.50
2022-09-15T00:23:36.086Z,79.90
2022-09-15T00:26:08.133Z,78.40
2022-09-15T00:28:36.781Z,79.30
2022-09-15T00:31:11.087Z,79.50
2022-09-15T00:33:38.794Z,79.20
2022-09-15T00:36:09.155Z,79.90
2022-09-15T00:38:36.844Z,79.90
2022-09-15T00:41:06.677Z,79.50
2022-09-15T00:43:45.957Z,78.70
2022-09-15T00:46:14.804Z,78.20
2022-09-15T00:48:53.012Z,77.50
2022-09-15T00:51:27.261Z,78.30
2022-09-15T00:53:55.783Z,84.00
2022-09-15T00:56:24.527Z,87.40
2022-09-15T00:59:04.436Z,88.90
2022-09-15T01:01:32.841Z,88.80
2022-09-15T01:04:00.724Z,87.90
2022-09-15T01:06:34.448Z,86.30
2022-09-15T01:09:19.461Z,84.80
2022-09-15T01:11:46.894Z,84.60
2022-09-15T01:14:14.552Z,84.50
2022-09-15T01:16:47.457Z,84.50
2022-09-15T01:19:39.504Z,86.10
2022-09-15T01:22:31.686Z,84.50
2022-09-15T01:25:12.917Z,80.20
2022-09-15T01:28:20.501Z,81.50
2022-09-15T01:31:12.343Z,81.50
2022-09-15T01:34:10.655Z,83.50
2022-09-15T01:37:04.508Z,82.80
2022-09-15T01:39:40.499Z,81.10
2022-09-15T01:42:11.282Z,81.30
2022-09-15T01:44:47.992Z,83.40
2022-09-15T01:47:18.191Z,83.60
2022-09-15T01:49:59.530Z,83.80
2022-09-15T01:52:29.161Z,82.50
2022-09-15T01:55:00.715Z,80.80
2022-09-15T01:57:28.330Z,79.70
2022-09-15T01:59:57.111Z,80.40
2022-09-15T02:02:38.217Z,84.10
2022-09-15T02:05:25.469Z,85.40
2022-09-15T02:08:06.917Z,84.60
2022-09-15T02:10:41.247Z,83.50
2022-09-15T02:13:17.440Z,82.40
2022-09-15T02:15:51.834Z,80.50
2022-09-15T02:18:35.414Z,81.20
2022-09-15T02:21:15.189Z,81.00
2022-09-15T02:23:50.323Z,80.60
2022-09-15T02:26:24.664Z,80.50
2022-09-15T02:28:55.214Z,80.80
2022-09-15T02:31:25.613Z,79.50
2022-09-15T02:34:00.828Z,79.70
2022-09-15T02:36:29.623Z,76.60
2022-09-15T02:39:07.474Z,73.70
2022-09-15T02:41:36.728Z,74.30
2022-09-15T02:44:04.595Z,75.80
2022-09-15T02:46:32.160Z,77.40
2022-09-15T02:49:00.091Z,76.90
2022-09-15T02:51:27.415Z,76.90
2022-09-15T02:53:55.202Z,82.00
2022-09-15T02:56:22.597Z,83.80
2022-09-15T02:58:50.295Z,83.50
2022-09-15T03:01:18.502Z,86.50
2022-09-15T03:03:46.778Z,85.20
2022-09-15T03:06:17.363Z,85.00
2022-09-15T03:08:55.160Z,84.40
2022-09-15T03:11:24.936Z,83.00
2022-09-15T03:13:57.930Z,82.30
2022-09-15T03:16:25.909Z,82.10
2022-09-15T03:18:55.900Z,81.20
2022-09-15T03:21:24.054Z,81.00
2022-09-15T03:23:52.600Z,82.10
2022-09-15T03:26:19.912Z,84.80
2022-09-15T03:28:47.506Z,85.00
2022-09-15T03:31:14.971Z,84.40
2022-09-15T03:33:42.271Z,83.40
2022-09-15T03:36:10.252Z,83.60
2022-09-15T03:38:37.489Z,83.40
2022-09-15T03:41:07.901Z,83.30
2022-09-15T03:43:35.666Z,82.40
2022-09-15T03:46:04.749Z,79.10
2022-09-15T03:48:35.188Z,80.50
2022-09-15T03:51:03.654Z,80.30
2022-09-15T03:53:34.756Z,79.80
2022-09-15T03:56:33.923Z,81.70
2022-09-15T03:59:03.322Z,81.20
2022-09-15T04:01:31.961Z,80.50
2022-09-15T04:04:00.763Z,80.70
2022-09-15T04:06:28.066Z,81.00
2022-09-15T04:08:55.818Z,81.20
2022-09-15T04:11:24.232Z,81.30
2022-09-15T04:13:53.972Z,81.00
2022-09-15T04:16:24.096Z,80.20
2022-09-15T04:18:55.658Z,80.50
2022-09-15T04:21:25.952Z,79.10
2022-09-15T04:23:54.436Z,77.80
2022-09-15T04:26:36.603Z,77.70
2022-09-15T04:29:06.359Z,79.00
2022-09-15T04:31:34.650Z,80.50
2022-09-15T04:34:02.482Z,82.50
2022-09-15T04:36:30.257Z,82.70
2022-09-15T04:38:58.310Z,82.70
2022-09-15T04:41:28.339Z,82.90
2022-09-15T04:43:55.640Z,82.80
2022-09-15T04:46:23.288Z,81.30
2022-09-15T04:48:51.387Z,74.20
2022-09-15T04:51:21.678Z,73.50
2022-09-15T04:53:50.381Z,73.20
2022-09-15T04:56:21.753Z,71.20
2022-09-15T04:58:59.515Z,70.80
2022-09-15T05:01:34.028Z,70.40
2022-09-15T05:04:04.216Z,70.80
2022-09-15T05:06:32.927Z,75.50
2022-09-15T05:09:00.285Z,77.00
2022-09-15T05:11:28.574Z,78.10
2022-09-15T05:13:55.934Z,79.00
2022-09-15T05:16:25.816Z,80.70
2022-09-15T05:18:56.300Z,80.70
2022-09-15T05:21:24.573Z,81.40
2022-09-15T05:23:53.195Z,83.30
2022-09-15T05:26:28.289Z,84.00
2022-09-15T05:28:56.799Z,85.20
2022-09-15T05:31:27.159Z,84.50
2022-09-15T05:33:54.865Z,83.70
2022-09-15T05:36:25.462Z,82.40
2022-09-15T05:38:56.635Z,80.40
2022-09-15T05:41:25.791Z,81.00
2022-09-15T05:43:55.644Z,81.40
2022-09-15T05:46:26.227Z,78.60
2022-09-15T05:48:55.746Z,77.10
2022-09-15T05:51:24.319Z,77.60
2022-09-15T05:53:53.173Z,76.10
2022-09-15T05:56:20.686Z,75.80
2022-09-15T05:58:49.511Z,75.00
2022-09-15T06:01:26.219Z,73.60
2022-09-15T06:03:55.096Z,73.70
2022-09-15T06:06:24.126Z,74.50
2022-09-15T06:08:58.399Z,75.00
2022-09-15T06:11:30.903Z,75.10
2022-09-15T06:14:03.377Z,74.70
2022-09-15T06:16:35.974Z,74.70
2022-09-15T06:19:05.228Z,75.10
2022-09-15T06:21:33.418Z,74.50
2022-09-15T06:24:03.698Z,73.80
2022-09-15T06:26:33.441Z,73.60
2022-09-15T06:29:04.029Z,74.50
2022-09-15T06:31:35.034Z,74.40
2022-09-15T06:34:04.184Z,73.50
2022-09-15T06:36:32.321Z,73.20
2022-09-15T06:39:00.190Z,73.00
2022-09-15T06:41:38.239Z,71.90
2022-09-15T06:44:18.992Z,71.80
2022-09-15T06:46:47.060Z,71.50
2022-09-15T06:49:14.539Z,71.80
2022-09-15T06:51:42.197Z,71.10
2022-09-15T06:54:09.462Z,70.90
2022-09-15T06:56:38.318Z,71.80
2022-09-15T06:59:05.894Z,73.00
2022-09-15T07:01:33.740Z,72.90
2022-09-15T07:04:04.191Z,73.50
2022-09-15T07:06:33.334Z,73.50
2022-09-15T07:09:02.624Z,74.50
2022-09-15T07:11:30.919Z,74.70
2022-09-15T07:13:58.564Z,75.80
2022-09-15T07:16:26.222Z,75.80
2022-09-15T07:18:57.228Z,76.20
2022-09-15T07:21:24.905Z,75.50
2022-09-15T07:23:53.512Z,76.10
2022-09-15T07:26:31.980Z,76.30
2022-09-15T07:29:05.866Z,76.50
2022-09-15T07:31:36.021Z,77.10
2022-09-15T07:34:03.800Z,78.40
2022-09-15T07:36:32.105Z,78.40
2022-09-15T07:38:59.505Z,78.70
2022-09-15T07:41:30.004Z,79.00
2022-09-15T07:43:59.212Z,78.90
2022-09-15T07:46:29.384Z,81.10
2022-09-15T07:48:56.937Z,81.80
2022-09-15T07:51:25.694Z,82.70
2022-09-15T07:53:54.374Z,83.80
2022-09-15T07:56:24.985Z,83.50
2022-09-15T07:58:53.628Z,84.40
2022-09-15T08:01:23.451Z,84.60
2022-09-15T08:03:53.753Z,86.10
2022-09-15T08:06:29.134Z,87.00
2022-09-15T08:09:00.825Z,87.90
2022-09-15T08:11:29.621Z,88.60
2022-09-15T08:14:00.055Z,87.70
2022-09-15T08:16:27.258Z,87.70
2022-09-15T08:18:56.000Z,89.90
2022-09-15T08:21:24.628Z,90.10
2022-09-15T08:23:55.261Z,89.00
2022-09-15T08:26:24.955Z,89.20
2022-09-15T08:28:53.682Z,89.20
2022-09-15T08:31:24.643Z,89.00
2022-09-15T08:33:55.603Z,88.70
2022-09-15T08:36:27.999Z,89.00
2022-09-15T08:38:55.854Z,88.20
2022-09-15T08:41:53.721Z,89.80
2022-09-15T08:44:31.293Z,89.40
2022-09-15T08:47:16.682Z,90.60
2022-09-15T08:49:58.841Z,91.30
2022-09-15T08:52:33.603Z,90.10
2022-09-15T08:55:12.315Z,90.60
2022-09-15T08:57:39.824Z,90.90
2022-09-15T09:00:16.663Z,90.80
2022-09-15T09:03:19.354Z,90.70
2022-09-15T09:06:00.036Z,89.40
2022-09-15T09:09:03.309Z,86.10
2022-09-15T09:11:57.515Z,85.90
2022-09-15T09:15:00.289Z,81.70
2022-09-15T09:17:45.926Z,84.70
2022-09-15T09:20:32.416Z,86.50
2022-09-15T09:23:02.850Z,88.50
2022-09-15T09:25:30.076Z,87.50
2022-09-15T09:27:58.589Z,89.00
2022-09-15T09:30:36.043Z,87.50
2022-09-15T09:33:11.436Z,88.60
2022-09-15T09:35:53.555Z,90.30
2022-09-15T09:38:26.640Z,87.70
2022-09-15T09:40:58.587Z,87.10
2022-09-15T09:43:30.171Z,84.90
2022-09-15T09:45:57.902Z,84.40
2022-09-15T09:48:27.788Z,82.50
2022-09-15T09:50:55.925Z,82.40
2022-09-15T09:53:26.025Z,84.00
2022-09-15T09:55:55.711Z,83.20
2022-09-15T09:58:25.795Z,85.00
2022-09-15T10:00:54.080Z,81.70
2022-09-15T10:03:32.052Z,79.10
2022-09-15T10:06:06.486Z,79.00
2022-09-15T10:08:35.611Z,81.40
2022-09-15T10:11:09.349Z,83.40
2022-09-15T10:13:49.663Z,81.90
2022-09-15T10:16:19.417Z,83.20
2022-09-15T10:18:54.216Z,82.90
2022-09-15T10:21:25.117Z,81.40
2022-09-15T10:23:52.851Z,83.20
2022-09-15T10:26:32.348Z,83.40
2022-09-15T10:29:14.675Z,82.40
2022-09-15T10:31:44.196Z,80.50
2022-09-15T10:34:31.357Z,80.80
2022-09-15T10:37:41.102Z,82.90
2022-09-15T10:40:37.517Z,81.70
2022-09-15T10:43:42.416Z,82.80
2022-09-15T10:46:21.099Z,81.90
2022-09-15T10:49:07.534Z,82.20
2022-09-15T10:51:55.067Z,80.70
2022-09-15T10:54:55.308Z,77.00
2022-09-15T10:58:00.838Z,73.00
2022-09-15T11:00:48.054Z,74.80
2022-09-15T11:03:43.978Z,76.40
2022-09-15T11:06:49.636Z,77.90
2022-09-15T11:09:48.114Z,79.30
2022-09-15T11:12:27.089Z,78.60
2022-09-15T11:15:02.409Z,79.90
2022-09-15T11:17:51.405Z,79.20
2022-09-15T11:20:30.395Z,76.00
2022-09-15T11:23:06.306Z,73.20
2022-09-15T11:25:37.722Z,70.40
2022-09-15T11:28:15.205Z,67.60
2022-09-15T11:30:59.360Z,69.10
2022-09-15T11:33:51.945Z,68.30
2022-09-15T11:36:33.895Z,67.70
2022-09-15T11:39:28.562Z,68.20
2022-09-15T11:42:05.325Z,65.70
2022-09-15T11:44:35.337Z,68.50
2022-09-15T11:47:09.563Z,66.40
2022-09-15T11:49:58.046Z,64.90
2022-09-15T11:52:50.428Z,62.40
2022-09-15T11:55:22.254Z,61.00
2022-09-15T11:58:22.313Z,61.40
2022-09-15T12:01:11.046Z,63.00
2022-09-15T12:03:59.694Z,60.00
2022-09-15T12:06:30.115Z,62.10
2022-09-15T12:09:12.510Z,61.40
2022-09-15T12:11:46.611Z,61.20
2022-09-15T12:14:30.695Z,61.20
2022-09-15T12:16:59.864Z,60.30
2022-09-15T12:19:33.708Z,60.10
2022-09-15T12:22:26.753Z,62.10
2022-09-15T12:25:15.864Z,58.40
2022-09-15T12:27:43.314Z,61.50
2022-09-15T12:30:46.064Z,62.60
2022-09-15T12:33:47.835Z,60.70
2022-09-15T12:36:40.228Z,64.70
2022-09-15T12:39:44.270Z,63.90
2022-09-15T12:42:24.123Z,61.90
2022-09-15T12:44:53.919Z,63.10
2022-09-15T12:47:40.907Z,64.80
2022-09-15T12:50:33.494Z,63.20
2022-09-15T12:53:20.811Z,62.20
2022-09-15T12:55:52.805Z,60.10
2022-09-15T12:58:34.850Z,59.50
2022-09-15T13:01:57.804Z,59.00
2022-09-15T13:04:55.041Z,59.90
2022-09-15T13:07:36.424Z,58.60
2022-09-15T13:10:13.006Z,60.30
2022-09-15T13:12:48.638Z,58.80
2022-09-15T13:15:20.138Z,56.80
2022-09-15T13:17:50.792Z,59.60
2022-09-15T13:20:26.096Z,57.90
2022-09-15T13:22:56.716Z,58.30
2022-09-15T13:25:30.241Z,57.50
2022-09-15T13:28:02.790Z,58.00
2022-09-15T13:31:10.829Z,57.90
2022-09-15T13:38:12.634Z,59.50
2022-09-15T13:40:54.636Z,60.20
2022-09-15T13:43:41.174Z,61.70
2022-09-15T13:46:33.029Z,62.50
2022-09-15T13:49:21.230Z,63.60
2022-09-15T13:52:08.042Z,63.30
2022-09-15T13:54:36.661Z,63.00
2022-09-15T13:57:05.040Z,63.50
2022-09-15T13:59:33.875Z,62.40
2022-09-15T14:02:01.920Z,61.00
2022-09-15T14:04:31.894Z,61.20
2022-09-15T14:07:01.743Z,60.90
2022-09-15T14:09:45.217Z,61.80
2022-09-15T14:12:15.416Z,61.70
2022-09-15T14:14:48.051Z,62.00
2022-09-15T14:17:24.385Z,62.00
2022-09-15T14:19:54.873Z,63.80
2022-09-15T14:22:31.321Z,64.10
2022-09-15T14:25:00.949Z,61.10
2022-09-15T14:27:32.323Z,62.40
2022-09-15T14:30:06.899Z,62.20
2022-09-15T14:32:45.938Z,62.50
2022-09-15T14:35:19.744Z,63.90
2022-09-15T14:37:56.866Z,62.90
2022-09-15T14:40:24.223Z,62.60
2022-09-15T14:42:51.641Z,64.00
2022-09-15T14:48:28.416Z,64.70
2022-09-15T14:51:03.124Z,64.70
2022-09-15T14:53:38.069Z,64.10
2022-09-15T14:56:11.980Z,64.70
2022-09-15T14:58:51.998Z,66.50
2022-09-15T15:01:19.612Z,66.70
2022-09-15T15:04:23.236Z,68.70
2022-09-15T15:07:02.400Z,68.70
2022-09-15T15:09:32.140Z,69.50
2022-09-15T15:12:07.017Z,69.10
2022-09-15T15:14:36.966Z,68.30
2022-09-15T15:17:24.263Z,68.70
2022-09-15T15:20:02.932Z,69.50
2022-09-15T15:22:30.379Z,70.50
2022-09-15T15:24:58.028Z,69.10
2022-09-15T15:27:35.938Z,69.50
2022-09-15T15:30:49.501Z,70.00
2022-09-15T15:33:25.118Z,68.40
2022-09-15T15:36:14.497Z,70.70
2022-09-15T15:38:51.031Z,71.10
2022-09-15T15:41:24.939Z,70.30
2022-09-15T15:43:58.086Z,70.70
2022-09-15T15:46:48.388Z,69.60
2022-09-15T15:49:16.481Z,71.20
2022-09-15T15:51:44.110Z,72.20
2022-09-15T15:54:11.392Z,71.30
2022-09-15T15:56:39.462Z,71.20
2022-09-15T15:59:09.637Z,70.80
2022-09-15T16:01:37.218Z,70.40
2022-09-15T16:04:05.224Z,71.50
2022-09-15T16:06:34.560Z,71.50
2022-09-15T16:09:03.106Z,71.40
2022-09-15T16:11:30.551Z,73.60
2022-09-15T16:13:58.474Z,72.90
2022-09-15T16:16:29.417Z,71.80
2022-09-15T16:18:59.751Z,72.00
2022-09-15T16:21:38.550Z,71.40
2022-09-15T16:24:10.733Z,73.60
2022-09-15T16:26:39.574Z,74.20
2022-09-15T16:29:07.709Z,74.10
2022-09-15T16:31:37.551Z,74.30
2022-09-15T16:34:13.736Z,74.70
2022-09-15T16:36:41.329Z,73.70
2022-09-15T16:39:08.984Z,73.80
2022-09-15T16:41:39.345Z,74.50
2022-09-15T16:44:20.040Z,74.40
2022-09-15T16:46:47.944Z,75.00
2022-09-15T16:49:15.351Z,74.80
2022-09-15T16:51:42.813Z,74.10
2022-09-15T16:54:15.910Z,73.20
2022-09-15T16:56:44.106Z,72.70
2022-09-15T16:59:11.916Z,75.10
2022-09-15T17:01:40.112Z,76.90
2022-09-15T17:04:17.211Z,76.80
2022-09-15T17:06:44.577Z,74.90
2022-09-15T17:09:11.877Z,73.80
2022-09-15T17:11:39.602Z,78.10
2022-09-15T17:14:08.888Z,77.70
2022-09-15T17:16:38.361Z,75.70
2022-09-15T17:19:05.735Z,76.10
2022-09-15T17:21:34.896Z,76.20
2022-09-15T17:24:02.715Z,76.50
2022-09-15T17:26:31.611Z,76.80
2022-09-15T17:28:59.232Z,77.20
2022-09-15T17:31:26.565Z,78.00
2022-09-15T17:33:54.330Z,78.90
2022-09-15T17:36:21.679Z,79.30
2022-09-15T17:38:49.342Z,79.40
2022-09-15T17:41:19.211Z,78.80
2022-09-15T17:43:46.828Z,78.90
2022-09-15T17:46:14.780Z,78.10
2022-09-15T17:48:42.758Z,77.20
2022-09-15T17:51:15.213Z,79.70
2022-09-15T17:53:43.398Z,79.30
2022-09-15T17:56:10.704Z,79.90
2022-09-15T17:58:39.144Z,78.00
2022-09-15T18:01:07.282Z,78.30
2022-09-15T18:03:37.315Z,79.10
2022-09-15T18:06:07.808Z,79.30
2022-09-15T18:08:37.151Z,79.30
2022-09-15T18:11:08.224Z,79.50
2022-09-15T18:13:37.345Z,79.40
2022-09-15T18:16:08.476Z,78.50
2022-09-15T18:18:38.319Z,80.00
2022-09-15T18:21:12.240Z,80.80
2022-09-15T18:23:42.582Z,81.20
2022-09-15T18:26:10.038Z,80.70
2022-09-15T18:28:37.712Z,81.00
2022-09-15T18:31:05.183Z,81.30
2022-09-15T18:33:32.989Z,81.20
2022-09-15T18:36:01.738Z,80.40
2022-09-15T18:38:29.230Z,80.00
2022-09-15T18:40:57.369Z,80.90
2022-09-15T18:43:27.407Z,80.50
2022-09-15T18:46:01.512Z,83.00
2022-09-15T18:48:29.472Z,83.70
2022-09-15T18:50:57.160Z,83.40
2022-09-15T18:53:24.757Z,82.70
2022-09-15T18:55:52.228Z,82.30
2022-09-15T18:58:20.685Z,82.60
2022-09-15T19:00:52.379Z,83.30
2022-09-15T19:03:21.287Z,83.60
2022-09-15T19:05:48.751Z,84.60
2022-09-15T19:08:17.150Z,84.60
2022-09-15T19:10:44.802Z,83.90
2022-09-15T19:13:14.236Z,86.30
2022-09-15T19:15:49.188Z,87.20
2022-09-15T19:18:18.895Z,87.30
2022-09-15T19:20:46.403Z,87.00
2022-09-15T19:23:16.188Z,86.50
2022-09-15T19:25:43.727Z,85.50
2022-09-15T19:28:11.316Z,85.20
2022-09-15T19:30:39.702Z,85.00
2022-09-15T19:33:07.841Z,84.70
2022-09-15T19:35:36.094Z,84.50
2022-09-15T19:38:03.453Z,84.70
2022-09-15T19:40:31.138Z,84.70
2022-09-15T19:42:58.435Z,84.40
2022-09-15T19:45:34.410Z,84.90
2022-09-15T19:48:02.675Z,85.50
2022-09-15T19:50:29.999Z,85.60
2022-09-15T19:52:59.560Z,85.50
2022-09-15T19:55:28.771Z,85.10
2022-09-15T19:57:56.101Z,85.20
2022-09-15T20:00:31.652Z,84.90
2022-09-15T20:02:59.638Z,84.40
2022-09-15T20:05:26.887Z,86.20
2022-09-15T20:07:54.250Z,86.60
2022-09-15T20:10:21.512Z,86.30
2022-09-15T20:12:48.830Z,86.20
2022-09-15T20:15:17.478Z,85.80
2022-09-15T20:17:46.098Z,87.20
2022-09-15T20:20:13.743Z,87.00
2022-09-15T20:22:41.134Z,86.80
2022-09-15T20:25:09.008Z,86.60
2022-09-15T20:27:37.751Z,86.30
2022-09-15T20:30:09.207Z,86.00
2022-09-15T20:32:37.861Z,86.10
2022-09-15T20:35:06.528Z,86.20
2022-09-15T20:37:37.487Z,86.60
2022-09-15T20:40:09.643Z,86.50
2022-09-15T20:42:38.297Z,85.90
2022-09-15T20:45:10.257Z,87.30
2022-09-15T20:47:37.968Z,87.20
2022-09-15T20:50:07.255Z,87.00
2022-09-15T20:52:38.381Z,86.50
2022-09-15T20:55:07.158Z,87.00
2022-09-15T20:57:35.073Z,87.50
2022-09-15T21:00:05.256Z,86.30
2022-09-15T21:02:32.676Z,86.90
2022-09-15T21:05:00.221Z,86.90
2022-09-15T21:07:28.007Z,87.00
2022-09-15T21:09:55.260Z,86.10
2022-09-15T21:12:22.826Z,85.70
2022-09-15T21:14:50.298Z,86.40
2022-09-15T21:17:18.449Z,87.10
2022-09-15T21:19:45.888Z,87.30
2022-09-15T21:22:13.236Z,87.60
2022-09-15T21:24:40.488Z,87.10
2022-09-15T21:27:27.097Z,87.10
2022-09-15T21:29:54.923Z,86.80
2022-09-15T21:32:22.278Z,85.90
2022-09-15T21:34:49.620Z,86.50
2022-09-15T21:37:16.972Z,86.70
2022-09-15T21:39:44.402Z,86.70
2022-09-15T21:42:13.144Z,87.20
2022-09-15T21:44:40.536Z,87.90
2022-09-15T21:47:08.484Z,88.20
2022-09-15T21:49:36.500Z,88.30
2022-09-15T21:52:04.029Z,88.20
2022-09-15T21:54:31.696Z,89.30
2022-09-15T21:56:59.388Z,89.80
2022-09-15T21:59:26.626Z,90.00
2022-09-15T22:01:54.508Z,89.70
2022-09-15T22:04:21.977Z,88.90
2022-09-15T22:06:50.391Z,88.00
2022-09-15T22:09:21.567Z,87.20
2022-09-15T22:11:49.416Z,87.60
2022-09-15T22:14:16.716Z,88.10
2022-09-15T22:16:44.788Z,88.20
2022-09-15T22:19:13.181Z,87.40
2022-09-15T22:21:42.213Z,87.10
2022-09-15T22:24:12.973Z,86.00
2022-09-15T22:26:42.264Z,84.70
2022-09-15T22:29:10.050Z,86.30
2022-09-15T22:31:38.430Z,87.50
2022-09-15T22:34:06.558Z,87.20
2022-09-15T22:36:34.442Z,86.20
2022-09-15T22:39:05.965Z,88.60
2022-09-15T22:41:38.838Z,88.20
2022-09-15T22:44:08.279Z,87.10
2022-09-15T22:46:36.535Z,86.60
2022-09-15T22:49:03.831Z,86.80
2022-09-15T22:51:31.252Z,87.80
2022-09-15T22:53:58.638Z,88.20
2022-09-15T22:56:26.612Z,87.60
2022-09-15T22:58:55.747Z,87.50
2022-09-15T23:01:27.070Z,87.10
2022-09-15T23:03:56.772Z,86.20
2022-09-15T23:06:26.438Z,85.60
2022-09-15T23:08:56.630Z,85.90
2022-09-15T23:11:25.451Z,86.10
2022-09-15T23:13:53.677Z,86.60
2022-09-15T23:16:23.299Z,87.80
2022-09-15T23:18:51.750Z,88.10
2022-09-15T23:21:19.733Z,87.40
2022-09-15T23:23:49.132Z,87.30
2022-09-15T23:26:19.207Z,87.40
2022-09-15T23:28:47.307Z,88.00
2022-09-15T23:31:15.389Z,88.10
2022-09-15T23:33:43.031Z,88.00
2022-09-15T23:36:13.649Z,87.60
2022-09-15T23:38:44.190Z,87.50
2022-09-15T23:41:12.663Z,87.50
2022-09-15T23:43:40.057Z,87.30
2022-09-15T23:46:07.840Z,87.10
2022-09-15T23:48:35.378Z,86.90
2022-09-15T23:51:03.204Z,86.40
2022-09-15T23:53:30.641Z,86.60
2022-09-15T23:55:58.532Z,87.30
2022-09-15T23:58:25.840Z,87.50
